Terminal Aerodrome Forecast
Issued by NWS

Home | Current Version | Previous Version | Text Only | Print | Product List | Glossary On
Versions: 1 2 3 4 5 6 7 8 9 10 11 12 13 14 15
000
FTAK31 PANC 301519 AAA
TAFAHO
TAF AMD
PAHO 301519Z 3015/0112 06015G22KT P6SM -SHRA BKN035 OVC050
     FM010000 04011KT P6SM -SHRA SCT025 OVC040
     FM010300 07006KT P6SM -SHRA SCT025 OVC040=

USA.gov is the U.S. government's official web portal to all federal, state and local government web resources and services.